createdAt,value
2022-08-26T00:00:19.627Z,16.58
2022-08-26T00:02:47.823Z,18.50
2022-08-26T00:05:16.321Z,14.93
2022-08-26T00:07:44.695Z,14.57
2022-08-26T00:10:15.126Z,15.50
2022-08-26T00:12:43.335Z,13.52
2022-08-26T00:15:13.824Z,18.95
2022-08-26T00:17:42.092Z,14.45
2022-08-26T00:20:11.625Z,13.32
2022-08-26T00:22:39.723Z,14.95
2022-08-26T00:25:10.263Z,15.55
2022-08-26T00:27:40.011Z,15.93
2022-08-26T00:30:11.414Z,16.70
2022-08-26T00:32:39.486Z,13.27
2022-08-26T00:35:08.729Z,14.88
2022-08-26T00:37:36.821Z,15.98
2022-08-26T00:40:06.268Z,11.25
2022-08-26T00:42:34.429Z,13.55
2022-08-26T00:45:04.447Z,19.00
2022-08-26T00:47:45.112Z,14.85
2022-08-26T00:50:19.738Z,18.52
2022-08-26T00:52:48.923Z,12.63
2022-08-26T00:55:22.228Z,16.95
2022-08-26T00:57:51.941Z,13.27
2022-08-26T01:00:25.738Z,16.73
2022-08-26T01:05:21.983Z,14.52
2022-08-26T01:07:50.066Z,15.00
2022-08-26T01:10:22.220Z,15.75
2022-08-26T01:13:04.773Z,15.73
2022-08-26T01:15:37.181Z,15.57
2022-08-26T01:18:07.530Z,12.60
2022-08-26T01:20:42.583Z,16.65
2022-08-26T01:23:13.684Z,12.77
2022-08-26T01:25:46.703Z,14.65
2022-08-26T01:28:18.679Z,17.52
2022-08-26T01:30:48.230Z,14.30
2022-08-26T01:33:20.833Z,16.15
2022-08-26T01:35:50.148Z,16.65
2022-08-26T01:38:21.471Z,15.70
2022-08-26T01:40:52.009Z,17.00
2022-08-26T01:43:27.087Z,15.52
2022-08-26T01:45:57.152Z,16.70
2022-08-26T01:48:29.536Z,15.77
2022-08-26T01:50:58.022Z,14.65
2022-08-26T01:53:28.294Z,15.05
2022-08-26T01:56:00.556Z,11.50
2022-08-26T01:58:36.058Z,14.57
2022-08-26T02:01:04.963Z,11.27
2022-08-26T02:03:34.124Z,12.45
2022-08-26T02:08:43.030Z,14.93
2022-08-26T02:11:12.193Z,14.77
2022-08-26T02:13:44.491Z,15.07
2022-08-26T02:16:14.009Z,19.00
2022-08-26T02:18:45.024Z,11.02
2022-08-26T02:21:15.318Z,11.63
2022-08-26T02:23:45.532Z,14.68
2022-08-26T02:26:16.496Z,15.52
2022-08-26T02:28:51.660Z,15.40
2022-08-26T02:31:20.287Z,15.48
2022-08-26T02:33:48.940Z,9.88
2022-08-26T02:36:20.975Z,14.85
2022-08-26T02:38:50.479Z,14.25
2022-08-26T02:41:20.279Z,12.45
2022-08-26T02:43:51.418Z,14.38
2022-08-26T02:46:27.913Z,12.07
2022-08-26T02:48:58.216Z,12.32
2022-08-26T02:51:27.064Z,12.50
2022-08-26T02:53:57.020Z,9.73
2022-08-26T02:56:25.843Z,14.43
2022-08-26T02:58:55.747Z,13.23
2022-08-26T03:01:25.907Z,17.42
2022-08-26T03:03:54.618Z,11.23
2022-08-26T03:06:24.389Z,13.02
2022-08-26T03:08:53.238Z,12.70
2022-08-26T03:11:23.729Z,12.75
2022-08-26T03:13:53.818Z,12.27
2022-08-26T03:16:22.027Z,11.80
2022-08-26T03:18:52.461Z,12.48
2022-08-26T03:21:21.780Z,15.13
2022-08-26T03:23:49.913Z,14.65
2022-08-26T03:26:18.321Z,18.67
2022-08-26T03:29:05.316Z,14.85
2022-08-26T03:31:33.507Z,12.93
2022-08-26T03:34:01.909Z,12.05
2022-08-26T03:36:30.063Z,14.00
2022-08-26T03:38:58.637Z,14.27
2022-08-26T03:41:26.744Z,15.55
2022-08-26T03:44:00.995Z,12.32
2022-08-26T03:46:30.088Z,14.82
2022-08-26T03:48:58.563Z,9.73
2022-08-26T03:51:27.544Z,13.85
2022-08-26T03:53:56.003Z,8.88
2022-08-26T03:56:25.316Z,16.92
2022-08-26T03:58:54.610Z,13.48
2022-08-26T04:01:24.572Z,11.23
2022-08-26T04:04:01.804Z,12.35
2022-08-26T04:06:33.964Z,11.07
2022-08-26T04:09:05.461Z,13.35
2022-08-26T04:11:38.295Z,13.68
2022-08-26T04:16:38.953Z,12.50
2022-08-26T04:19:07.512Z,14.30
2022-08-26T04:21:38.309Z,10.25
2022-08-26T04:24:11.376Z,10.15
2022-08-26T04:29:14.947Z,15.23
2022-08-26T04:31:44.536Z,13.90
2022-08-26T04:34:14.201Z,14.65
2022-08-26T04:36:44.134Z,11.10
2022-08-26T04:39:16.702Z,13.00
2022-08-26T04:41:47.747Z,10.25
2022-08-26T04:44:17.447Z,12.20
2022-08-26T04:46:47.037Z,13.90
2022-08-26T04:49:15.543Z,10.55
2022-08-26T04:51:43.942Z,14.82
2022-08-26T04:54:12.240Z,14.60
2022-08-26T04:56:42.468Z,13.15
2022-08-26T04:59:17.073Z,14.48
2022-08-26T05:01:49.697Z,13.30
2022-08-26T05:04:19.279Z,13.60
2022-08-26T05:06:47.788Z,11.65
2022-08-26T05:09:18.439Z,15.63
2022-08-26T05:11:48.435Z,12.27
2022-08-26T05:14:20.822Z,16.13
2022-08-26T05:16:50.333Z,10.85
2022-08-26T05:19:19.158Z,14.13
2022-08-26T05:21:48.533Z,11.68
2022-08-26T05:24:17.122Z,11.60
2022-08-26T05:26:47.258Z,11.38
2022-08-26T05:29:16.211Z,11.15
2022-08-26T05:31:45.018Z,9.82
2022-08-26T05:34:14.619Z,13.57
2022-08-26T05:36:43.328Z,11.00
2022-08-26T05:39:11.415Z,10.35
2022-08-26T05:41:42.329Z,11.88
2022-08-26T05:44:13.151Z,15.13
2022-08-26T05:46:44.819Z,14.82
2022-08-26T05:49:17.040Z,12.75
2022-08-26T05:51:47.642Z,12.63
2022-08-26T05:54:21.919Z,17.13
2022-08-26T05:56:50.791Z,16.83
2022-08-26T05:59:24.242Z,10.52
2022-08-26T06:01:54.740Z,12.73
2022-08-26T06:04:27.204Z,9.18
2022-08-26T06:06:56.512Z,14.77
2022-08-26T06:09:25.477Z,12.82
2022-08-26T06:11:53.663Z,11.57
2022-08-26T06:14:21.830Z,13.07
2022-08-26T06:16:49.935Z,15.50
2022-08-26T06:19:18.372Z,8.82
2022-08-26T06:21:54.104Z,11.18
2022-08-26T06:24:39.951Z,14.38
2022-08-26T06:27:11.398Z,13.70
2022-08-26T06:29:39.647Z,11.02
2022-08-26T06:32:08.811Z,14.73
2022-08-26T06:34:37.127Z,11.23
2022-08-26T06:37:07.276Z,17.48
2022-08-26T06:39:35.755Z,16.80
2022-08-26T06:42:09.222Z,14.48
2022-08-26T06:44:40.953Z,11.20
2022-08-26T06:47:09.260Z,12.80
2022-08-26T06:49:37.560Z,13.77
2022-08-26T06:52:07.403Z,10.38
2022-08-26T06:54:37.194Z,16.45
2022-08-26T06:57:07.581Z,15.27
2022-08-26T06:59:35.757Z,13.57
2022-08-26T07:02:06.151Z,13.38
2022-08-26T07:04:36.196Z,13.38
2022-08-26T07:07:04.467Z,13.15
2022-08-26T07:09:35.413Z,10.73
2022-08-26T07:12:06.859Z,10.23
2022-08-26T07:14:38.221Z,13.82
2022-08-26T07:17:11.011Z,12.25
2022-08-26T07:19:41.920Z,13.70
2022-08-26T07:22:11.061Z,14.82
2022-08-26T07:24:42.510Z,12.48
2022-08-26T07:27:13.681Z,11.68
2022-08-26T07:29:43.722Z,12.88
2022-08-26T07:32:14.413Z,13.15
2022-08-26T07:34:43.595Z,14.00
2022-08-26T07:37:12.372Z,15.15
2022-08-26T07:39:43.223Z,11.20
2022-08-26T07:42:13.339Z,15.20
2022-08-26T07:44:42.432Z,8.70
2022-08-26T07:47:24.860Z,11.07
2022-08-26T07:52:26.236Z,11.93
2022-08-26T07:54:56.827Z,12.30
2022-08-26T07:57:25.031Z,11.10
2022-08-26T07:59:53.924Z,10.63
2022-08-26T08:02:24.139Z,13.30
2022-08-26T08:04:53.278Z,13.65
2022-08-26T08:07:21.637Z,9.05
2022-08-26T08:10:11.656Z,10.88
2022-08-26T08:12:39.900Z,14.70
2022-08-26T08:15:09.804Z,13.55
2022-08-26T08:17:37.998Z,11.25
2022-08-26T08:20:07.725Z,9.70
2022-08-26T08:22:35.652Z,14.55
2022-08-26T08:25:08.065Z,12.63
2022-08-26T08:27:39.444Z,11.73
2022-08-26T08:30:10.232Z,15.48
2022-08-26T08:32:43.630Z,10.30
2022-08-26T08:35:14.144Z,12.95
2022-08-26T08:37:43.856Z,10.80
2022-08-26T08:40:18.423Z,9.93
2022-08-26T08:45:36.629Z,9.02
2022-08-26T08:48:09.984Z,9.15
2022-08-26T08:50:44.745Z,12.10
2022-08-26T08:53:17.536Z,11.13
2022-08-26T08:55:59.404Z,8.32
2022-08-26T08:58:40.675Z,9.65
2022-08-26T09:01:17.869Z,9.45
2022-08-26T09:03:57.269Z,11.98
2022-08-26T09:06:27.635Z,7.57
2022-08-26T09:08:57.487Z,11.20
2022-08-26T09:11:25.780Z,12.88
2022-08-26T09:13:56.903Z,13.25
2022-08-26T09:16:36.910Z,10.40
2022-08-26T09:19:14.629Z,10.43
2022-08-26T09:21:47.324Z,8.07
2022-08-26T09:24:22.267Z,9.27
2022-08-26T09:26:52.634Z,12.32
2022-08-26T09:29:25.117Z,8.13
2022-08-26T09:31:56.656Z,6.80
2022-08-26T09:34:26.688Z,10.25
2022-08-26T09:36:56.212Z,13.40
2022-08-26T09:39:34.737Z,12.48
2022-08-26T09:42:11.815Z,9.48
2022-08-26T09:45:03.734Z,9.57
2022-08-26T09:47:34.205Z,12.05
2022-08-26T09:50:12.429Z,10.40
2022-08-26T09:52:42.847Z,9.77
2022-08-26T09:55:14.707Z,8.85
2022-08-26T09:57:49.720Z,11.18
2022-08-26T10:00:31.008Z,13.40
2022-08-26T10:03:01.018Z,9.05
2022-08-26T10:05:33.382Z,13.35
2022-08-26T10:08:02.232Z,15.52
2022-08-26T10:10:34.864Z,7.30
2022-08-26T10:13:11.005Z,10.88
2022-08-26T10:15:50.648Z,7.97
2022-08-26T10:18:25.232Z,9.77
2022-08-26T10:20:59.253Z,7.47
2022-08-26T10:23:32.510Z,9.52
2022-08-26T10:26:09.887Z,9.18
2022-08-26T10:28:45.115Z,9.65
2022-08-26T10:31:27.892Z,9.40
2022-08-26T10:34:00.494Z,10.10
2022-08-26T10:37:14.339Z,11.15
2022-08-26T10:39:46.178Z,9.88
2022-08-26T10:42:21.819Z,8.40
2022-08-26T10:44:53.444Z,9.82
2022-08-26T10:47:35.280Z,9.57
2022-08-26T10:50:04.724Z,10.10
2022-08-26T10:52:52.791Z,11.73
2022-08-26T10:55:25.657Z,11.40
2022-08-26T10:58:04.756Z,8.73
2022-08-26T11:00:58.141Z,12.07
2022-08-26T11:03:38.937Z,12.70
2022-08-26T11:06:24.892Z,8.10
2022-08-26T11:08:54.684Z,8.13
2022-08-26T11:11:51.531Z,9.43
2022-08-26T11:14:53.052Z,7.65
2022-08-26T11:17:56.716Z,8.05
2022-08-26T11:20:39.334Z,6.67
2022-08-26T11:23:50.495Z,10.77
2022-08-26T11:26:43.141Z,8.48
2022-08-26T11:29:13.531Z,11.95
2022-08-26T11:31:59.990Z,9.88
2022-08-26T11:34:54.200Z,11.90
2022-08-26T11:37:32.251Z,9.13
2022-08-26T11:40:03.901Z,7.35
2022-08-26T11:42:37.886Z,8.13
2022-08-26T11:45:20.088Z,12.88
2022-08-26T11:47:49.327Z,11.20
2022-08-26T11:50:20.747Z,8.23
2022-08-26T11:53:07.790Z,9.57
2022-08-26T11:55:43.110Z,7.03
2022-08-26T11:58:13.798Z,7.47
2022-08-26T12:00:52.529Z,8.05
2022-08-26T12:03:25.129Z,10.48
2022-08-26T12:05:55.197Z,11.90
2022-08-26T12:08:31.368Z,9.43
2022-08-26T12:11:09.802Z,11.02
2022-08-26T12:13:39.372Z,11.70
2022-08-26T12:16:08.298Z,8.45
2022-08-26T12:18:38.308Z,11.45
2022-08-26T12:21:16.181Z,10.57
2022-08-26T12:23:49.911Z,10.90
2022-08-26T12:26:25.502Z,14.88
2022-08-26T12:28:57.534Z,9.18
2022-08-26T12:31:29.726Z,7.22
2022-08-26T12:33:59.640Z,11.98
2022-08-26T12:36:32.801Z,13.13
2022-08-26T12:39:10.079Z,8.80
2022-08-26T12:41:45.133Z,10.20
2022-08-26T12:44:35.373Z,12.57
2022-08-26T12:47:08.447Z,10.85
2022-08-26T12:49:37.682Z,11.10
2022-08-26T12:52:06.805Z,14.55
2022-08-26T12:54:56.867Z,8.82
2022-08-26T12:57:29.608Z,8.85
2022-08-26T13:00:28.320Z,13.20
2022-08-26T13:02:57.717Z,10.27
2022-08-26T13:05:29.341Z,13.35
2022-08-26T13:08:15.032Z,13.80
2022-08-26T13:10:46.832Z,10.93
2022-08-26T13:13:15.510Z,16.65
2022-08-26T13:15:45.116Z,18.88
2022-08-26T13:18:13.260Z,13.13
2022-08-26T13:20:44.323Z,7.50
2022-08-26T13:23:13.675Z,18.58
2022-08-26T13:25:46.637Z,11.77
2022-08-26T13:28:15.092Z,14.75
2022-08-26T13:30:47.218Z,9.55
2022-08-26T13:33:18.423Z,18.83
2022-08-26T13:35:46.785Z,13.85
2022-08-26T13:38:18.572Z,12.98
2022-08-26T13:41:04.151Z,9.43
2022-08-26T13:43:32.602Z,9.40
2022-08-26T13:46:02.070Z,11.23
2022-08-26T13:48:31.357Z,12.90
2022-08-26T13:50:59.705Z,10.88
2022-08-26T13:53:29.689Z,13.85
2022-08-26T13:55:58.988Z,12.50
2022-08-26T13:58:29.307Z,13.68
2022-08-26T14:00:59.094Z,15.27
2022-08-26T14:03:27.627Z,10.90
2022-08-26T14:05:56.164Z,14.25
2022-08-26T14:08:25.399Z,13.63
2022-08-26T14:10:53.972Z,14.45
2022-08-26T14:13:22.091Z,16.65
2022-08-26T14:15:52.860Z,13.45
2022-08-26T14:18:24.234Z,11.77
2022-08-26T14:20:55.501Z,15.23
2022-08-26T14:23:23.953Z,14.32
2022-08-26T14:25:52.892Z,11.15
2022-08-26T14:28:21.244Z,10.32
2022-08-26T14:30:55.399Z,9.80
2022-08-26T14:33:27.899Z,10.38
2022-08-26T14:36:16.935Z,14.07
2022-08-26T14:38:45.469Z,12.52
2022-08-26T14:41:15.585Z,12.80
2022-08-26T14:43:48.954Z,8.73
2022-08-26T14:46:19.580Z,15.02
2022-08-26T14:48:48.070Z,12.90
2022-08-26T14:51:16.095Z,9.55
2022-08-26T14:54:01.264Z,15.55
2022-08-26T14:56:31.730Z,13.23
2022-08-26T14:58:59.979Z,10.32
2022-08-26T15:01:31.082Z,11.65
2022-08-26T15:03:59.733Z,15.13
2022-08-26T15:06:28.516Z,11.07
2022-08-26T15:08:56.724Z,11.82
2022-08-26T15:11:25.977Z,14.43
2022-08-26T15:13:54.402Z,13.35
2022-08-26T15:16:22.892Z,11.65
2022-08-26T15:18:53.250Z,14.77
2022-08-26T15:21:22.638Z,9.80
2022-08-26T15:23:54.085Z,13.40
2022-08-26T15:26:23.894Z,12.73
2022-08-26T15:28:52.822Z,15.10
2022-08-26T15:31:26.681Z,10.73
2022-08-26T15:33:59.545Z,14.93
2022-08-26T15:36:29.510Z,14.88
2022-08-26T15:38:59.453Z,14.23
2022-08-26T15:41:28.486Z,15.77
2022-08-26T15:43:56.966Z,10.52
2022-08-26T15:46:25.798Z,16.17
2022-08-26T15:48:55.646Z,9.98
2022-08-26T15:51:26.149Z,12.13
2022-08-26T15:53:58.023Z,9.65
2022-08-26T15:56:27.305Z,10.75
2022-08-26T15:58:57.027Z,11.48
2022-08-26T16:01:27.387Z,13.13
2022-08-26T16:03:57.654Z,15.13
2022-08-26T16:06:28.661Z,11.82
2022-08-26T16:08:58.202Z,15.27
2022-08-26T16:11:27.359Z,7.90
2022-08-26T16:13:55.600Z,13.13
2022-08-26T16:16:25.001Z,12.02
2022-08-26T16:18:53.660Z,13.75
2022-08-26T16:21:25.657Z,13.50
2022-08-26T16:23:54.142Z,11.15
2022-08-26T16:26:25.534Z,12.20
2022-08-26T16:28:53.951Z,15.27
2022-08-26T16:31:22.777Z,15.30
2022-08-26T16:33:51.544Z,11.95
2022-08-26T16:36:20.021Z,17.40
2022-08-26T16:38:53.588Z,17.83
2022-08-26T16:41:22.665Z,17.60
2022-08-26T16:43:51.312Z,17.08
2022-08-26T16:46:22.302Z,10.05
2022-08-26T16:48:50.427Z,13.90
2022-08-26T16:51:23.060Z,15.05
2022-08-26T16:53:53.657Z,19.20
2022-08-26T16:56:23.878Z,15.75
2022-08-26T16:59:01.736Z,11.13
2022-08-26T17:01:30.768Z,19.30
2022-08-26T17:03:58.884Z,17.33
2022-08-26T17:06:26.973Z,16.73
2022-08-26T17:08:56.596Z,14.20
2022-08-26T17:11:24.726Z,17.90
2022-08-26T17:13:53.681Z,17.27
2022-08-26T17:16:26.624Z,12.38
2022-08-26T17:18:56.326Z,11.60
2022-08-26T17:21:25.238Z,14.25
2022-08-26T17:23:54.269Z,13.35
2022-08-26T17:26:23.925Z,13.35
2022-08-26T17:28:52.491Z,19.23
2022-08-26T17:31:21.679Z,13.80
2022-08-26T17:33:53.415Z,16.02
2022-08-26T17:36:28.111Z,13.93
2022-08-26T17:38:58.142Z,16.58
2022-08-26T17:41:28.390Z,10.45
2022-08-26T17:43:57.261Z,15.90
2022-08-26T17:46:25.887Z,14.93
2022-08-26T17:48:54.289Z,18.08
2022-08-26T17:51:23.588Z,15.07
2022-08-26T17:53:51.808Z,15.43
2022-08-26T17:56:24.058Z,13.68
2022-08-26T17:58:55.141Z,14.45
2022-08-26T18:01:27.229Z,14.13
2022-08-26T18:04:00.333Z,13.07
2022-08-26T18:06:30.468Z,14.80
2022-08-26T18:08:58.602Z,12.85
2022-08-26T18:11:27.462Z,12.73
2022-08-26T18:13:57.897Z,12.73
2022-08-26T18:16:26.388Z,12.75
2022-08-26T18:18:55.210Z,15.02
2022-08-26T18:21:28.215Z,16.33
2022-08-26T18:23:56.886Z,14.15
2022-08-26T18:26:28.570Z,12.38
2022-08-26T18:28:58.650Z,16.58
2022-08-26T18:31:27.758Z,14.80
2022-08-26T18:33:56.529Z,15.70
2022-08-26T18:36:27.433Z,14.32
2022-08-26T18:38:56.531Z,15.55
2022-08-26T18:41:28.889Z,15.82
2022-08-26T18:43:59.402Z,14.50
2022-08-26T18:46:29.033Z,16.98
2022-08-26T18:48:58.125Z,15.23
2022-08-26T18:51:29.722Z,16.33
2022-08-26T18:53:58.764Z,15.80
2022-08-26T18:56:27.036Z,13.70
2022-08-26T18:58:55.498Z,13.75
2022-08-26T19:01:27.584Z,19.13
2022-08-26T19:03:56.599Z,18.65
2022-08-26T19:06:26.747Z,15.75
2022-08-26T19:08:55.817Z,14.95
2022-08-26T19:11:31.556Z,13.10
2022-08-26T19:14:01.438Z,16.20
2022-08-26T19:16:31.802Z,13.32
2022-08-26T19:19:01.740Z,13.70
2022-08-26T19:21:30.685Z,10.52
2022-08-26T19:24:00.044Z,12.60
2022-08-26T19:26:29.462Z,15.02
2022-08-26T19:28:57.793Z,10.70
2022-08-26T19:31:26.446Z,15.88
2022-08-26T19:33:56.826Z,11.18
2022-08-26T19:36:27.138Z,18.25
2022-08-26T19:38:56.037Z,13.32
2022-08-26T19:41:36.811Z,13.10
2022-08-26T19:44:09.805Z,10.85
2022-08-26T19:49:13.762Z,14.38
2022-08-26T19:51:41.913Z,12.98
2022-08-26T19:54:10.327Z,13.43
2022-08-26T19:56:38.627Z,11.77
2022-08-26T19:59:06.788Z,15.13
2022-08-26T20:01:34.844Z,15.43
2022-08-26T20:04:04.326Z,15.88
2022-08-26T20:06:34.373Z,17.13
2022-08-26T20:09:02.451Z,14.07
2022-08-26T20:11:31.223Z,18.73
2022-08-26T20:14:00.638Z,13.68
2022-08-26T20:16:28.859Z,13.15
2022-08-26T20:19:14.037Z,13.70
2022-08-26T20:21:44.186Z,19.70
2022-08-26T20:24:15.627Z,18.77
2022-08-26T20:26:45.257Z,21.85
2022-08-26T20:29:15.086Z,19.30
2022-08-26T20:31:45.132Z,17.10
2022-08-26T20:34:14.641Z,20.00
2022-08-26T20:36:45.200Z,18.35
2022-08-26T20:39:14.296Z,23.55
2022-08-26T20:41:42.815Z,18.67
2022-08-26T20:44:11.378Z,19.58
2022-08-26T20:46:39.379Z,17.45
2022-08-26T20:49:08.059Z,19.88
2022-08-26T20:51:38.677Z,24.25
2022-08-26T20:54:08.364Z,22.70
2022-08-26T20:56:37.771Z,15.07
2022-08-26T20:59:08.244Z,18.67
2022-08-26T21:01:41.930Z,23.05
2022-08-26T21:04:13.261Z,18.15
2022-08-26T21:06:42.327Z,20.75
2022-08-26T21:09:22.404Z,16.42
2022-08-26T21:11:51.374Z,19.73
2022-08-26T21:14:20.721Z,14.65
2022-08-26T21:16:49.081Z,21.92
2022-08-26T21:19:19.715Z,20.27
2022-08-26T21:21:49.110Z,19.15
2022-08-26T21:24:17.846Z,19.50
2022-08-26T21:26:47.762Z,21.90
2022-08-26T21:29:16.366Z,15.35
2022-08-26T21:31:46.673Z,17.15
2022-08-26T21:34:15.511Z,18.17
2022-08-26T21:36:43.647Z,20.23
2022-08-26T21:39:12.407Z,15.68
2022-08-26T21:41:41.023Z,18.05
2022-08-26T21:44:11.834Z,23.15
2022-08-26T21:46:40.006Z,20.80
2022-08-26T21:49:10.706Z,16.20
2022-08-26T21:51:41.603Z,16.63
2022-08-26T21:54:11.573Z,14.35
2022-08-26T21:56:44.335Z,19.13
2022-08-26T21:59:15.312Z,18.63
2022-08-26T22:01:43.429Z,19.30
2022-08-26T22:04:12.087Z,17.10
2022-08-26T22:06:45.059Z,15.93
2022-08-26T22:09:14.470Z,17.20
2022-08-26T22:11:43.193Z,20.50
2022-08-26T22:14:12.360Z,24.40
2022-08-26T22:16:42.062Z,20.13
2022-08-26T22:19:20.188Z,17.60
2022-08-26T22:21:50.300Z,20.13
2022-08-26T22:24:19.029Z,18.67
2022-08-26T22:26:48.142Z,20.30
2022-08-26T22:29:16.831Z,21.45
2022-08-26T22:31:46.899Z,23.73
2022-08-26T22:34:17.595Z,20.67
2022-08-26T22:36:47.662Z,21.80
2022-08-26T22:39:17.877Z,21.48
2022-08-26T22:41:48.734Z,19.23
2022-08-26T22:44:17.856Z,20.00
2022-08-26T22:46:49.368Z,21.83
2022-08-26T22:49:17.964Z,19.42
2022-08-26T22:51:46.648Z,20.75
2022-08-26T22:54:15.553Z,25.80
2022-08-26T22:56:44.365Z,19.58
2022-08-26T22:59:13.129Z,19.25
2022-08-26T23:01:44.806Z,22.40
2022-08-26T23:04:15.120Z,19.65
2022-08-26T23:06:47.611Z,21.02
2022-08-26T23:09:18.314Z,21.48
2022-08-26T23:11:48.905Z,20.85
2022-08-26T23:14:18.822Z,18.20
2022-08-26T23:16:47.642Z,19.88
2022-08-26T23:19:20.173Z,15.20
2022-08-26T23:21:49.493Z,24.10
2022-08-26T23:24:18.593Z,19.50
2022-08-26T23:26:47.420Z,25.85
2022-08-26T23:29:16.489Z,22.02
2022-08-26T23:31:44.695Z,22.40
2022-08-26T23:34:31.579Z,20.67
2022-08-26T23:37:01.639Z,20.67
2022-08-26T23:39:29.981Z,20.88
2022-08-26T23:41:58.306Z,22.65
2022-08-26T23:44:27.158Z,20.35
2022-08-26T23:46:55.974Z,20.48
2022-08-26T23:49:24.549Z,22.02
2022-08-26T23:52:09.978Z,25.38
2022-08-26T23:54:39.846Z,21.52
2022-08-26T23:57:09.505Z,21.88
2022-08-26T23:59:39.049Z,24.92
